Time;durP1;ratioP1;P1;durP2;ratioP2;P2;SDS_P1;SDS_P2;PMS_P1;PMS_P2;Temp;Humidity;BMP_temperature;BMP_pressure;BME280_temperature;BME280_humidity;BME280_pressure;Samples;Min_cycle;Max_cycle;Signal;HPM_P1;HPM_P2
2021/07/05 00:01:52;;;;;;;1.35;1.17;;;;;;;15.13;98.16;98650.75;5134772;27;20062;-74
2021/07/05 00:04:28;;;;;;;1.92;1.38;;;;;;;15.11;97.87;98645.50;5135232;27;20543;-74
2021/07/05 00:07:00;;;;;;;1.92;1.00;;;;;;;15.13;96.48;98653.47;5135219;27;20051;-74
2021/07/05 00:10:12;;;;;;;17.67;2.47;;;;;;;15.09;95.98;98647.63;5135054;27;20050;-74
2021/07/05 00:12:44;;;;;;;3.55;1.13;;;;;;;15.01;94.94;98646.03;5125872;27;20444;-74
2021/07/05 00:15:12;;;;;;;4.43;1.25;;;;;;;14.99;97.40;98630.91;5133899;27;20043;-74
2021/07/05 00:17:40;;;;;;;4.63;1.45;;;;;;;14.93;97.21;98634.53;5134298;27;20050;-75
2021/07/05 00:20:09;;;;;;;6.00;1.10;;;;;;;14.93;97.91;98634.53;5134484;27;20494;-75
2021/07/05 00:22:36;;;;;;;8.07;1.08;;;;;;;14.96;95.90;98634.09;5134047;27;20112;-75
2021/07/05 00:25:04;;;;;;;1.52;1.13;;;;;;;15.05;97.09;98649.16;5138892;27;20046;-75
2021/07/05 00:27:31;;;;;;;3.55;1.80;;;;;;;14.98;97.58;98638.28;5112519;28;20048;-75
2021/07/05 00:29:58;;;;;;;1.38;1.05;;;;;;;15.08;96.16;98628.69;5125617;27;20475;-75
2021/07/05 00:32:25;;;;;;;5.45;1.98;;;;;;;15.12;96.07;98630.75;5126669;27;20059;-75
2021/07/05 00:34:51;;;;;;;4.82;1.42;;;;;;;15.06;96.32;98625.38;5132462;27;20047;-75
2021/07/05 00:37:19;;;;;;;3.47;1.50;;;;;;;15.12;98.16;98633.50;5114291;27;20113;-75
2021/07/05 00:39:46;;;;;;;3.55;1.13;;;;;;;15.08;96.95;98631.44;5113697;28;20411;-74
2021/07/05 00:42:13;;;;;;;7.75;1.50;;;;;;;15.13;97.34;98634.31;5113921;28;20051;-74
2021/07/05 00:44:40;;;;;;;3.70;1.63;;;;;;;14.96;98.13;98634.09;5130632;27;20050;-74
2021/07/05 00:47:07;;;;;;;4.65;1.40;;;;;;;14.95;98.62;98644.22;5134344;27;20499;-74
2021/07/05 00:49:34;;;;;;;1.23;1.13;;;;;;;14.86;97.10;98635.44;5133930;27;20047;-74
2021/07/05 00:52:01;;;;;;;2.75;1.45;;;;;;;14.80;97.54;98621.84;5134013;27;20047;-74
2021/07/05 00:54:29;;;;;;;4.82;1.33;;;;;;;14.85;98.11;98636.50;5133760;27;20047;-75
2021/07/05 00:56:56;;;;;;;2.03;1.10;;;;;;;14.83;96.35;98635.91;5132533;27;20414;-75
2021/07/05 00:59:23;;;;;;;2.92;1.52;;;;;;;14.69;96.60;98632.47;5131738;27;20104;-75
2021/07/05 01:01:50;;;;;;;2.33;1.17;;;;;;;14.64;96.82;98624.06;5132997;27;20062;-75
2021/07/05 01:04:16;;;;;;;2.35;1.20;;;;;;;14.66;97.41;98640.25;5132518;27;20096;-75
2021/07/05 01:06:43;;;;;;;7.22;1.65;;;;;;;14.65;98.10;98641.34;5133855;27;20051;-75
2021/07/05 01:09:10;;;;;;;2.70;1.50;;;;;;;14.63;99.04;98635.25;5132419;27;20053;-75
2021/07/05 01:11:38;;;;;;;1.75;1.50;;;;;;;14.55;99.79;98630.03;5133641;27;20107;-75
2021/07/05 01:14:11;;;;;;;2.05;1.27;;;;;;;14.52;98.90;98620.38;5137609;27;20050;-74
2021/07/05 01:16:40;;;;;;;5.15;1.48;;;;;;;14.64;98.52;98635.00;5133861;27;20154;-74
2021/07/05 01:19:08;;;;;;;3.00;1.17;;;;;;;14.63;98.66;98622.41;5144868;27;20133;-75
2021/07/05 01:21:37;;;;;;;2.58;1.38;;;;;;;14.55;97.83;98617.19;5136959;27;20043;-74
2021/07/05 01:24:04;;;;;;;3.45;1.35;;;;;;;14.61;98.14;98620.97;5130441;27;20112;-74
2021/07/05 01:26:31;;;;;;;3.70;1.20;;;;;;;14.55;98.40;98613.63;5129762;27;20558;-75
2021/07/05 01:28:57;;;;;;;1.70;1.08;;;;;;;14.51;98.43;98618.69;5133686;27;20083;-75
2021/07/05 01:31:24;;;;;;;6.15;1.38;;;;;;;14.49;97.71;98615.34;5132985;27;20043;-75
2021/07/05 01:33:52;;;;;;;3.53;1.33;;;;;;;14.32;99.03;98593.22;5133169;27;20047;-75
2021/07/05 01:36:19;;;;;;;2.83;1.00;;;;;;;14.37;99.02;98598.81;5133650;27;20054;-75
2021/07/05 01:38:49;;;;;;;12.70;1.55;;;;;;;14.27;99.25;98591.16;5132842;27;20050;-75
2021/07/05 01:41:19;;;;;;;3.45;1.10;;;;;;;14.38;98.50;98597.78;5132071;27;20458;-74
2021/07/05 01:43:48;;;;;;;3.30;0.90;;;;;;;14.35;98.38;98595.50;5145175;27;20075;-74
2021/07/05 01:46:17;;;;;;;3.17;1.20;;;;;;;14.28;99.16;98594.72;5133612;27;20039;-74
2021/07/05 01:48:46;;;;;;;2.47;1.10;;;;;;;14.24;98.83;98590.72;5140693;27;20050;-75
2021/07/05 01:54:05;;;;;;;4.72;1.10;;;;;;;14.41;98.92;98585.56;5083781;28;20085;-74
2021/07/05 01:56:32;;;;;;;2.92;1.08;;;;;;;14.46;98.73;98592.00;5131610;27;20509;-74
2021/07/05 01:58:59;;;;;;;1.10;1.00;;;;;;;14.33;99.15;98575.72;5145409;27;20043;-74
2021/07/05 02:01:26;;;;;;;2.35;1.10;;;;;;;14.36;98.48;98583.47;5141390;27;20043;-75
2021/07/05 02:03:53;;;;;;;1.67;0.70;;;;;;;14.46;99.78;98600.22;5134381;27;20058;-75
2021/07/05 02:06:21;;;;;;;2.95;1.38;;;;;;;14.49;100.00;98607.16;5143981;27;20100;-75
2021/07/05 02:08:48;;;;;;;5.47;0.95;;;;;;;14.50;100.00;98595.16;5146678;27;20410;-75
2021/07/05 02:11:16;;;;;;;3.17;1.17;;;;;;;14.54;100.00;98585.41;5128600;27;20054;-75
2021/07/05 02:13:43;;;;;;;4.22;1.35;;;;;;;14.59;99.49;98580.13;5131674;27;20181;-75
2021/07/05 02:16:10;;;;;;;4.45;2.58;;;;;;;14.60;99.40;98568.13;5132769;27;20047;-75
2021/07/05 02:18:36;;;;;;;2.95;1.10;;;;;;;14.64;98.61;98563.06;5132743;27;20050;-75
2021/07/05 02:21:06;;;;;;;2.58;0.85;;;;;;;14.64;98.86;98557.59;5131887;27;20428;-75
2021/07/05 02:23:33;;;;;;;9.23;1.05;;;;;;;14.50;99.62;98551.41;5132242;27;20051;-76
2021/07/05 02:26:01;;;;;;;1.85;1.30;;;;;;;14.42;100.00;98555.25;5132457;27;20058;-75
2021/07/05 02:28:33;;;;;;;4.47;1.40;;;;;;;14.50;100.00;98578.75;5132709;27;20247;-75
2021/07/05 02:31:00;;;;;;;6.15;1.50;;;;;;;14.58;99.75;98583.91;5132240;27;20054;-75
2021/07/05 02:33:30;;;;;;;2.08;1.00;;;;;;;14.53;99.84;98578.28;5132679;28;20047;-75
2021/07/05 02:35:58;;;;;;;1.15;0.98;;;;;;;14.64;100.00;98565.81;5129619;28;20047;-76
2021/07/05 02:38:25;;;;;;;4.47;1.40;;;;;;;14.63;100.00;98570.44;5130709;28;20058;-76
2021/07/05 02:40:56;;;;;;;1.58;1.27;;;;;;;14.58;100.00;98562.03;5132206;28;20451;-75
2021/07/05 02:43:23;;;;;;;1.30;0.95;;;;;;;14.70;100.00;98584.03;5129984;28;20459;-76
2021/07/05 02:45:54;;;;;;;1.85;1.00;;;;;;;14.72;100.00;98590.13;5132680;28;20044;-76
2021/07/05 02:48:23;;;;;;;4.30;2.28;;;;;;;14.68;100.00;98578.81;5132441;28;20478;-75
2021/07/05 02:50:57;;;;;;;4.20;1.00;;;;;;;14.85;100.00;98580.94;5118013;27;20058;-75
2021/07/05 02:53:31;;;;;;;5.38;1.38;;;;;;;14.86;99.09;98577.97;5136388;27;20042;-75
2021/07/05 02:56:30;;;;;;;5.15;2.38;;;;;;;14.89;100.00;98584.06;5135155;27;20055;-75
2021/07/05 02:59:27;;;;;;;3.53;1.45;;;;;;;14.88;100.00;98583.22;5135817;27;20058;-75
2021/07/05 03:02:09;;;;;;;4.47;2.45;;;;;;;14.91;99.87;98581.94;5136551;27;20047;-75
2021/07/05 03:04:36;;;;;;;1.10;1.00;;;;;;;14.86;100.00;98574.41;5148589;27;20059;-75
2021/07/05 03:07:03;;;;;;;1.48;1.05;;;;;;;14.98;99.18;98577.22;5136701;27;20047;-75
2021/07/05 03:09:29;;;;;;;5.30;0.95;;;;;;;14.91;99.94;98568.25;5135760;27;20048;-75
2021/07/05 03:11:56;;;;;;;2.03;1.23;;;;;;;14.84;99.51;98552.75;5132073;27;20490;-75
2021/07/05 03:14:23;;;;;;;1.58;1.30;;;;;;;14.88;100.00;98580.50;5136367;27;20058;-75
2021/07/05 03:16:50;;;;;;;3.72;1.30;;;;;;;14.86;100.00;98561.56;5136023;27;20414;-76
2021/07/05 03:19:18;;;;;;;2.15;1.40;;;;;;;14.92;99.31;98565.28;5141643;27;20074;-76
2021/07/05 03:21:44;;;;;;;1.42;1.02;;;;;;;15.06;99.36;98584.31;5156375;27;20428;-76
2021/07/05 03:24:11;;;;;;;3.03;1.25;;;;;;;14.99;98.33;98579.72;5154369;27;20106;-76
2021/07/05 03:26:38;;;;;;;2.40;2.13;;;;;;;14.97;98.45;98579.13;5156482;27;20872;-76
2021/07/05 03:29:05;;;;;;;1.40;1.27;;;;;;;15.08;98.62;98587.63;5154652;27;20099;-76
2021/07/05 03:31:31;;;;;;;2.10;1.30;;;;;;;15.14;99.15;98587.56;5153759;27;20091;-76
2021/07/05 03:33:58;;;;;;;3.72;1.38;;;;;;;15.18;98.78;98587.94;5155912;27;20050;-76
2021/07/05 03:36:26;;;;;;;3.45;1.10;;;;;;;15.08;99.00;98584.91;5142651;27;20119;-76
2021/07/05 03:38:53;;;;;;;7.88;1.25;;;;;;;15.19;98.28;98584.97;5156570;27;20054;-76
2021/07/05 03:41:20;;;;;;;2.05;1.08;;;;;;;15.14;97.43;98576.59;5150744;27;20096;-76
2021/07/05 03:43:47;;;;;;;1.55;1.10;;;;;;;15.19;98.52;98582.25;5135410;27;20051;-76
2021/07/05 03:46:13;;;;;;;2.70;1.35;;;;;;;15.09;98.47;98565.50;5135487;27;20552;-76
2021/07/05 03:48:40;;;;;;;3.20;1.58;;;;;;;15.30;98.84;98577.88;5150654;27;20662;-76
2021/07/05 03:51:07;;;;;;;2.70;1.23;;;;;;;15.32;98.63;98574.91;5154584;27;20095;-76
2021/07/05 03:53:35;;;;;;;3.75;1.20;;;;;;;15.22;97.89;98576.31;5146082;27;20099;-76
2021/07/05 03:56:04;;;;;;;2.70;1.30;;;;;;;15.19;96.42;98554.88;5155673;27;20095;-76
2021/07/05 03:58:31;;;;;;;2.75;1.20;;;;;;;15.10;97.69;98533.50;5142425;27;20096;-76
2021/07/05 04:00:59;;;;;;;1.52;1.42;;;;;;;15.16;98.34;98557.19;5146815;27;20042;-76
2021/07/05 04:03:26;;;;;;;1.52;1.23;;;;;;;15.21;97.18;98560.09;5145426;27;20051;-76
2021/07/05 04:05:53;;;;;;;7.45;1.20;;;;;;;15.27;97.83;98564.66;5135337;27;20047;-77
2021/07/05 04:08:21;;;;;;;1.60;1.08;;;;;;;15.22;98.42;98556.31;5138380;27;20640;-77
2021/07/05 04:10:49;;;;;;;6.72;1.10;;;;;;;15.27;98.05;98558.34;5155845;27;20047;-77
2021/07/05 04:13:16;;;;;;;3.60;1.00;;;;;;;15.43;97.32;98573.31;5145280;27;20055;-76
2021/07/05 04:15:43;;;;;;;1.92;1.30;;;;;;;15.42;96.37;98566.16;5135105;27;20047;-74
2021/07/05 04:18:10;;;;;;;3.28;1.30;;;;;;;15.39;95.45;98565.53;5135231;27;20096;-75
2021/07/05 04:20:37;;;;;;;4.55;1.20;;;;;;;15.45;95.35;98572.00;5140731;27;20043;-75
2021/07/05 04:23:04;;;;;;;6.68;1.27;;;;;;;15.45;96.38;98573.94;5155532;27;20125;-75
2021/07/05 04:25:30;;;;;;;4.88;1.15;;;;;;;15.41;96.66;98579.00;5148233;27;20047;-75
2021/07/05 04:28:00;;;;;;;2.80;1.00;;;;;;;15.43;96.51;98595.22;5134885;27;20043;-75
2021/07/05 04:30:27;;;;;;;1.20;1.10;;;;;;;15.39;97.20;98589.38;5128193;27;20054;-83
2021/07/05 04:32:54;;;;;;;1.23;1.13;;;;;;;15.39;96.95;98586.63;5135801;27;20103;-76
2021/07/05 04:35:21;;;;;;;1.65;1.25;;;;;;;15.34;95.57;98583.72;5153947;27;20051;-76
2021/07/05 04:37:49;;;;;;;9.18;1.40;;;;;;;15.55;94.91;98586.00;5136076;27;20051;-78
2021/07/05 04:40:18;;;;;;;4.47;1.45;;;;;;;15.68;95.41;98595.09;5134583;27;20111;-78
2021/07/05 04:42:46;;;;;;;1.42;1.20;;;;;;;15.67;94.23;98599.75;5144542;27;20054;-77
2021/07/05 04:45:16;;;;;;;10.88;1.92;;;;;;;15.75;94.51;98602.16;5151696;27;20104;-78
2021/07/05 04:47:42;;;;;;;;;;;;;;;15.75;96.13;98598.59;5142605;27;20072;-78
2021/07/05 04:50:12;;;;;;;2.25;1.23;;;;;;;15.65;94.65;98585.44;5155573;27;19927;-78
2021/07/05 04:52:39;;;;;;;3.42;1.15;;;;;;;15.79;95.52;98591.59;5151492;27;20050;-78
2021/07/05 04:55:08;;;;;;;1.85;1.23;;;;;;;15.75;94.96;98580.22;5149423;27;20043;-78
2021/07/05 04:57:36;;;;;;;1.35;1.10;;;;;;;15.89;94.06;98585.56;5134691;27;20058;-78
2021/07/05 05:00:06;;;;;;;2.72;1.25;;;;;;;15.78;94.37;98568.00;5134299;27;20050;-78
2021/07/05 05:02:34;;;;;;;1.25;1.13;;;;;;;15.95;96.36;98575.56;5133433;27;20118;-78
2021/07/05 05:05:01;;;;;;;2.05;1.42;;;;;;;16.00;95.90;98583.91;5134215;27;20104;-78
2021/07/05 05:07:28;;;;;;;1.40;1.30;;;;;;;16.04;96.70;98572.25;5145746;27;20054;-78
2021/07/05 05:10:00;;;;;;;3.40;1.48;;;;;;;16.14;95.88;98563.44;5141414;27;20494;-78
2021/07/05 05:12:27;;;;;;;5.00;1.38;;;;;;;16.28;96.69;98567.63;5144597;27;20051;-78
2021/07/05 05:14:54;;;;;;;1.48;0.82;;;;;;;16.23;94.41;98561.22;5154553;27;20130;-78
2021/07/05 05:17:20;;;;;;;1.63;1.45;;;;;;;16.24;93.81;98557.38;5153077;27;20209;-78
2021/07/05 05:19:49;;;;;;;1.77;0.90;;;;;;;16.35;94.42;98564.78;5155577;27;20047;-78
2021/07/05 05:22:16;;;;;;;6.15;1.23;;;;;;;16.35;94.67;98559.31;5154807;27;20077;-78
2021/07/05 05:24:43;;;;;;;1.85;1.25;;;;;;;16.47;93.15;98581.25;5154938;27;20118;-78
2021/07/05 05:27:11;;;;;;;1.45;1.20;;;;;;;16.40;93.95;98559.41;5155545;27;20129;-77
2021/07/05 05:29:38;;;;;;;1.27;1.17;;;;;;;16.58;92.05;98588.66;5154968;27;20480;-77
2021/07/05 05:32:05;;;;;;;1.55;1.17;;;;;;;16.66;91.86;98589.38;5155283;27;20046;-77
2021/07/05 05:34:32;;;;;;;2.38;1.17;;;;;;;16.70;91.74;98588.66;5155639;27;20047;-77
2021/07/05 05:37:01;;;;;;;3.22;1.05;;;;;;;16.75;91.49;98602.47;5155843;27;20439;-78
2021/07/05 05:39:27;;;;;;;5.95;1.30;;;;;;;16.89;91.83;98605.03;5155625;27;20058;-78
2021/07/05 05:41:54;;;;;;;2.33;1.35;;;;;;;16.96;92.00;98603.81;5155634;27;20051;-77
2021/07/05 05:44:21;;;;;;;1.92;1.38;;;;;;;16.99;93.83;98591.53;5134266;27;20050;-77
2021/07/05 05:46:48;;;;;;;2.13;1.48;;;;;;;17.01;91.92;98596.78;5134280;27;20050;-77
2021/07/05 05:49:14;;;;;;;3.33;1.38;;;;;;;17.19;90.57;98607.59;5143600;27;20439;-77
2021/07/05 05:51:41;;;;;;;8.82;1.02;;;;;;;17.20;90.18;98598.28;5155501;27;20042;-77
2021/07/05 05:54:11;;;;;;;2.92;1.23;;;;;;;17.08;91.92;98594.75;5155294;27;20129;-77
2021/07/05 05:56:40;;;;;;;11.15;1.60;;;;;;;17.27;90.57;98603.66;5153619;27;20099;-77
2021/07/05 05:59:09;;;;;;;1.70;1.10;;;;;;;17.33;90.23;98606.28;5134902;27;20073;-77
2021/07/05 06:01:38;;;;;;;2.05;1.20;;;;;;;17.31;90.35;98597.44;5134922;27;20293;-77
2021/07/05 06:04:05;;;;;;;3.95;1.40;;;;;;;17.31;91.04;98593.84;5134643;27;20043;-77
2021/07/05 06:06:37;;;;;;;3.53;1.40;;;;;;;17.38;91.76;98599.22;5134722;27;20051;-77
2021/07/05 06:09:04;;;;;;;5.13;1.20;;;;;;;17.38;92.89;98616.53;5134690;27;20050;-77
2021/07/05 06:11:35;;;;;;;2.22;1.40;;;;;;;17.34;91.77;98613.44;5134343;27;20103;-77
2021/07/05 06:14:02;;;;;;;2.58;1.08;;;;;;;17.34;88.17;98604.34;5134559;27;20047;-78
2021/07/05 06:16:28;;;;;;;4.45;1.20;;;;;;;17.39;87.76;98606.38;5134304;27;20051;-77
2021/07/05 06:18:55;;;;;;;9.38;1.38;;;;;;;17.44;88.69;98611.97;5133480;27;20040;-77
2021/07/05 06:21:22;;;;;;;2.03;1.10;;;;;;;17.24;88.66;98596.75;5134322;27;20043;-78
2021/07/05 06:23:49;;;;;;;6.35;1.17;;;;;;;17.27;87.24;98599.00;5134390;27;20055;-78
2021/07/05 06:26:16;;;;;;;2.42;1.33;;;;;;;17.23;89.04;98597.81;5133668;27;20051;-77
2021/07/05 06:28:44;;;;;;;2.35;1.27;;;;;;;17.25;88.58;98587.44;5134228;27;20054;-78
2021/07/05 06:31:11;;;;;;;6.75;1.30;;;;;;;17.42;88.30;98603.13;5140127;27;20050;-77
2021/07/05 06:33:38;;;;;;;4.32;1.38;;;;;;;17.48;89.03;98592.00;5152445;27;20102;-78
2021/07/05 06:36:05;;;;;;;6.80;1.92;;;;;;;17.64;91.22;98593.16;5134095;28;20051;-78
2021/07/05 06:38:33;;;;;;;3.78;1.27;;;;;;;17.71;88.25;98606.75;5134838;27;20058;-78
2021/07/05 06:40:59;;;;;;;11.23;1.70;;;;;;;17.78;90.86;98587.34;5153376;27;20077;-78
2021/07/05 06:43:27;;;;;;;4.82;1.35;;;;;;;17.79;90.27;98597.28;5153846;27;20108;-78
2021/07/05 06:45:55;;;;;;;4.40;1.42;;;;;;;17.72;87.72;98586.44;5135597;27;20079;-78
2021/07/05 06:48:22;;;;;;;2.05;1.27;;;;;;;17.94;90.26;98592.09;5134211;28;20509;-78
2021/07/05 06:50:49;;;;;;;3.00;1.20;;;;;;;17.92;88.10;98574.19;5134137;28;20047;-77
2021/07/05 06:53:15;;;;;;;2.17;1.30;;;;;;;18.08;87.15;98587.13;5133410;28;20175;-78
2021/07/05 06:55:42;;;;;;;1.58;1.20;;;;;;;18.24;87.08;98579.94;5138165;27;20050;-77
2021/07/05 06:58:11;;;;;;;4.18;1.10;;;;;;;18.31;89.04;98596.31;5154621;27;20042;-77
2021/07/05 07:00:38;;;;;;;4.40;1.10;;;;;;;18.39;88.25;98590.38;5153271;27;20103;-77
2021/07/05 07:03:06;;;;;;;4.72;1.25;;;;;;;18.49;85.65;98598.81;5151549;27;20043;-77
2021/07/05 07:05:34;;;;;;;2.58;1.20;;;;;;;18.64;86.20;98606.47;5153102;27;20093;-77
2021/07/05 07:08:01;;;;;;;6.32;1.40;;;;;;;18.82;85.22;98602.63;5152986;27;20050;-77
2021/07/05 07:10:28;;;;;;;5.32;1.65;;;;;;;18.90;85.12;98601.38;5153073;27;20047;-77
2021/07/05 07:12:56;;;;;;;2.78;1.30;;;;;;;18.92;83.53;98607.47;5152555;27;20046;-77
2021/07/05 07:15:27;;;;;;;2.65;1.30;;;;;;;18.99;82.29;98612.81;5148046;27;20039;-77
2021/07/05 07:17:57;;;;;;;9.60;1.40;;;;;;;18.78;81.42;98609.72;5132350;28;20050;-77
2021/07/05 07:20:25;;;;;;;;;;;;;;;18.71;84.49;98609.06;5133043;28;20058;-77
2021/07/05 07:22:52;;;;;;;1.88;1.30;;;;;;;18.71;82.63;98609.06;5132441;28;19972;-77
2021/07/05 07:25:19;;;;;;;2.13;1.35;;;;;;;18.44;85.32;98607.00;5132015;28;20043;-77
2021/07/05 07:27:46;;;;;;;3.47;1.10;;;;;;;18.24;86.11;98592.88;5132290;28;20054;-77
2021/07/05 07:30:14;;;;;;;2.03;1.30;;;;;;;18.38;87.80;98596.97;5132160;28;20112;-77
2021/07/05 07:32:41;;;;;;;5.57;1.17;;;;;;;18.46;85.64;98601.25;5131846;28;20574;-77
2021/07/05 07:35:09;;;;;;;2.08;1.08;;;;;;;18.35;83.57;98592.81;5132120;28;20418;-77
2021/07/05 07:37:39;;;;;;;7.38;1.52;;;;;;;18.47;84.68;98589.97;5132247;27;20379;-77
2021/07/05 07:40:14;;;;;;;2.25;1.00;;;;;;;18.65;85.52;98596.28;5135951;27;20050;-77
2021/07/05 07:42:41;;;;;;;1.17;0.82;;;;;;;18.63;83.61;98599.31;5135499;27;20456;-77
2021/07/05 07:45:09;;;;;;;1.45;1.10;;;;;;;18.76;84.19;98595.38;5135014;27;20043;-77
2021/07/05 07:47:36;;;;;;;2.45;1.50;;;;;;;18.80;84.89;98602.03;5136006;27;20047;-78
2021/07/05 07:50:03;;;;;;;2.97;1.27;;;;;;;18.87;83.92;98586.19;5136180;27;20432;-78
2021/07/05 07:52:30;;;;;;;1.30;1.00;;;;;;;19.05;81.23;98598.03;5135595;27;20047;-78
2021/07/05 07:54:58;;;;;;;1.92;1.05;;;;;;;19.24;83.19;98588.38;5135389;27;20043;-78
2021/07/05 07:57:25;;;;;;;1.15;1.05;;;;;;;19.08;82.93;98573.53;5135631;27;20107;-78
2021/07/05 07:59:51;;;;;;;1.88;1.10;;;;;;;19.53;81.76;98596.44;5135659;27;20100;-78
2021/07/05 08:02:18;;;;;;;1.63;1.10;;;;;;;19.50;78.65;98580.41;5135497;27;20039;-78
2021/07/05 08:04:45;;;;;;;2.17;1.05;;;;;;;19.58;79.00;98570.84;5135574;27;20100;-78
2021/07/05 08:07:12;;;;;;;5.53;1.25;;;;;;;19.74;79.72;98588.41;5135372;27;20111;-78
2021/07/05 08:09:39;;;;;;;3.83;1.15;;;;;;;19.59;83.43;98573.34;5135294;27;20051;-77
2021/07/05 08:12:09;;;;;;;4.60;1.33;;;;;;;19.72;81.54;98582.31;5134524;27;20043;-78
2021/07/05 08:14:36;;;;;;;5.05;1.33;;;;;;;19.86;81.74;98580.84;5135388;27;20067;-78
2021/07/05 08:17:03;;;;;;;1.40;1.00;;;;;;;19.73;82.06;98578.47;5135130;27;20046;-78
2021/07/05 08:19:30;;;;;;;4.72;1.25;;;;;;;19.79;80.95;98591.25;5135281;27;20047;-78
2021/07/05 08:21:57;;;;;;;1.60;1.10;;;;;;;19.68;81.13;98595.78;5134953;27;20482;-78
2021/07/05 08:24:24;;;;;;;1.33;0.90;;;;;;;19.76;79.18;98600.81;5134711;27;20043;-77
2021/07/05 08:26:50;;;;;;;1.60;0.90;;;;;;;19.63;84.02;98587.44;5135116;27;20069;-78
2021/07/05 08:29:18;;;;;;;6.85;1.58;;;;;;;19.61;80.35;98601.47;5134827;27;20502;-77
2021/07/05 08:31:45;;;;;;;2.30;0.98;;;;;;;19.69;83.52;98602.13;5134450;27;20096;-77
2021/07/05 08:34:12;;;;;;;2.30;1.17;;;;;;;20.11;81.62;98593.22;5134447;27;20059;-78
2021/07/05 08:36:40;;;;;;;3.72;1.00;;;;;;;20.07;79.22;98592.09;5135214;27;20384;-77
2021/07/05 08:39:08;;;;;;;2.55;1.00;;;;;;;19.96;78.16;98602.16;5134819;27;20058;-78
2021/07/05 08:41:34;;;;;;;1.67;0.90;;;;;;;19.78;79.35;98582.16;5134666;27;20167;-78
2021/07/05 08:44:02;;;;;;;2.72;0.80;;;;;;;19.92;78.55;98590.00;5133880;27;20051;-78
2021/07/05 08:46:32;;;;;;;2.42;0.70;;;;;;;19.86;75.93;98593.78;5134807;27;20109;-78
2021/07/05 08:48:59;;;;;;;1.60;0.88;;;;;;;19.62;78.51;98572.00;5134218;27;20550;-77
2021/07/05 08:51:26;;;;;;;3.72;0.80;;;;;;;19.71;79.35;98586.16;5134259;27;20055;-77
2021/07/05 08:53:55;;;;;;;1.45;0.70;;;;;;;19.89;78.69;98588.59;5134081;27;20043;-78
2021/07/05 08:56:23;;;;;;;2.97;1.00;;;;;;;19.96;81.39;98586.47;5134594;27;20485;-78
2021/07/05 08:58:52;;;;;;;3.58;1.05;;;;;;;19.89;79.71;98588.59;5134401;27;20479;-78
2021/07/05 09:01:19;;;;;;;1.02;0.93;;;;;;;20.06;80.08;98569.16;5134083;27;20133;-77
2021/07/05 09:03:50;;;;;;;3.08;0.95;;;;;;;20.12;79.86;98586.59;5134214;27;20115;-77
2021/07/05 09:06:18;;;;;;;4.82;1.02;;;;;;;19.77;79.73;98597.00;5134154;27;20413;-77
2021/07/05 09:08:47;;;;;;;1.35;0.70;;;;;;;19.66;80.79;98570.41;5134178;27;20051;-78
2021/07/05 09:11:18;;;;;;;2.55;1.00;;;;;;;19.91;80.11;98580.06;5133500;27;20543;-78
2021/07/05 09:13:50;;;;;;;9.98;1.30;;;;;;;20.04;81.83;98579.66;5133767;27;20051;-77
2021/07/05 09:16:31;;;;;;;1.95;0.90;;;;;;;19.96;77.43;98580.94;5134115;27;20387;-78
2021/07/05 09:19:01;;;;;;;1.55;0.70;;;;;;;20.07;79.97;98590.16;5133903;27;20043;-78
2021/07/05 09:21:29;;;;;;;6.78;1.15;;;;;;;19.98;80.96;98600.00;5133728;27;20051;-78
2021/07/05 09:24:00;;;;;;;5.05;1.10;;;;;;;20.08;81.61;98593.75;5133596;27;20092;-78
2021/07/05 09:26:30;;;;;;;3.70;1.35;;;;;;;20.17;82.25;98600.44;5113547;28;20047;-78
2021/07/05 09:28:58;;;;;;;5.80;0.70;;;;;;;19.86;78.70;98596.53;5113326;28;20044;-78
2021/07/05 09:31:35;;;;;;;1.05;0.75;;;;;;;20.01;80.19;98601.38;5112939;28;20047;-78
2021/07/05 09:34:05;;;;;;;2.15;0.98;;;;;;;19.73;79.34;98598.59;5113018;28;20396;-77
2021/07/05 09:36:31;;;;;;;2.28;1.00;;;;;;;19.39;82.67;98590.50;5113018;28;20392;-78
2021/07/05 09:38:58;;;;;;;0.90;0.73;;;;;;;19.41;82.30;98607.59;5113423;28;20437;-78
2021/07/05 09:41:28;;;;;;;3.53;0.70;;;;;;;19.35;85.55;98603.09;5112947;28;20187;-77
2021/07/05 09:43:57;;;;;;;2.60;1.20;;;;;;;19.48;84.60;98607.41;5112119;28;20100;-77
2021/07/05 09:46:38;;;;;;;6.55;0.80;;;;;;;19.55;83.04;98621.00;5113009;28;20051;-78
2021/07/05 09:49:21;;;;;;;1.13;0.60;;;;;;;19.23;78.25;98608.72;5112956;28;20134;-77
2021/07/05 09:52:05;;;;;;;1.80;0.70;;;;;;;19.24;79.72;98618.69;5119478;27;20043;-77
2021/07/05 09:54:33;;;;;;;1.58;0.50;;;;;;;19.29;77.89;98609.63;5133254;27;20086;-77
2021/07/05 09:57:01;;;;;;;3.60;0.93;;;;;;;19.03;82.09;98623.06;5133519;27;20059;-77
2021/07/05 09:59:28;;;;;;;1.20;0.70;;;;;;;18.98;85.63;98617.47;5133358;27;20115;-77
2021/07/05 10:01:57;;;;;;;0.70;0.55;;;;;;;18.58;84.81;98613.81;5132236;27;20108;-77
2021/07/05 10:04:27;;;;;;;0.50;0.50;;;;;;;18.53;84.41;98619.25;5133263;27;20051;-77
2021/07/05 10:06:55;;;;;;;0.70;0.50;;;;;;;18.49;80.44;98611.75;5133152;27;20054;-77
2021/07/05 10:09:32;;;;;;;0.80;0.40;;;;;;;18.38;81.61;98611.56;5133053;27;20088;-78
2021/07/05 10:12:15;;;;;;;13.13;1.33;;;;;;;18.58;83.61;98613.00;5132634;27;20482;-77
2021/07/05 10:14:41;;;;;;;3.55;0.75;;;;;;;18.49;83.22;98626.34;5133055;27;20458;-77
2021/07/05 10:17:14;;;;;;;2.88;0.60;;;;;;;18.44;82.89;98614.41;5132955;27;20047;-78
2021/07/05 10:19:43;;;;;;;3.95;0.70;;;;;;;18.43;84.95;98620.97;5132805;27;20243;-77
2021/07/05 10:22:12;;;;;;;0.90;0.70;;;;;;;18.44;85.71;98609.75;5133105;27;20078;-77
2021/07/05 10:24:40;;;;;;;1.15;0.50;;;;;;;18.37;85.28;98607.16;5132690;27;20043;-77
2021/07/05 10:27:08;;;;;;;1.73;0.60;;;;;;;18.40;86.31;98608.56;5133076;27;20095;-77
2021/07/05 10:29:37;;;;;;;2.53;0.50;;;;;;;18.38;87.11;98602.47;5133028;27;20047;-78
2021/07/05 10:32:05;;;;;;;0.75;0.60;;;;;;;18.37;88.37;98598.06;5132449;27;20046;-77
2021/07/05 10:34:32;;;;;;;1.77;0.65;;;;;;;18.46;86.43;98590.22;5132971;27;20103;-77
2021/07/05 10:37:03;;;;;;;4.88;0.85;;;;;;;18.83;87.48;98596.00;5132604;28;20567;-77
2021/07/05 10:39:31;;;;;;;0.50;0.50;;;;;;;18.99;88.02;98588.84;5133155;28;20047;-78
2021/07/05 10:41:57;;;;;;;4.90;0.85;;;;;;;19.27;86.65;98587.84;5132357;28;20116;-77
2021/07/05 10:44:41;;;;;;;0.73;0.73;;;;;;;19.38;87.06;98575.03;5131982;28;20047;-77
2021/07/05 10:47:08;;;;;;;1.90;0.93;;;;;;;19.39;85.53;98584.13;5132561;28;20047;-77
2021/07/05 10:49:47;;;;;;;1.35;0.80;;;;;;;19.60;83.41;98568.66;5132668;28;20547;-77
2021/07/05 10:52:19;;;;;;;1.38;0.70;;;;;;;19.72;86.41;98574.03;5132271;28;20058;-77
2021/07/05 10:54:49;;;;;;;1.38;0.82;;;;;;;19.58;88.15;98571.66;5132393;28;20047;-78
2021/07/05 10:57:18;;;;;;;0.75;0.70;;;;;;;19.56;87.59;98565.59;5132768;28;20085;-77
2021/07/05 10:59:47;;;;;;;1.08;0.60;;;;;;;19.68;85.13;98568.22;5132613;28;20047;-77
2021/07/05 11:02:40;;;;;;;2.72;0.95;;;;;;;19.71;85.39;98567.69;5132228;28;20534;-78
2021/07/05 11:05:30;;;;;;;2.75;0.88;;;;;;;19.52;85.25;98566.38;5132586;28;20476;-77
2021/07/05 11:08:20;;;;;;;4.03;1.00;;;;;;;19.43;86.39;98561.31;5132423;28;20574;-77
2021/07/05 11:10:48;;;;;;;3.13;1.00;;;;;;;19.35;85.06;98558.19;5132223;28;20074;-77
2021/07/05 11:13:19;;;;;;;4.47;1.35;;;;;;;19.33;89.13;98566.72;5134521;27;20043;-78
2021/07/05 11:15:53;;;;;;;1.50;0.95;;;;;;;19.35;85.47;98559.00;5136760;27;20419;-78
2021/07/05 11:19:09;;;;;;;2.83;1.02;;;;;;;19.28;86.90;98566.63;5136177;27;20093;-77
2021/07/05 11:22:01;;;;;;;4.28;1.20;;;;;;;19.23;87.39;98561.06;5092484;27;20116;-77
2021/07/05 11:24:49;;;;;;;3.03;1.20;;;;;;;19.43;87.44;98560.47;5135864;27;20406;-77
2021/07/05 11:27:51;;;;;;;4.53;1.33;;;;;;;19.68;86.94;98562.69;5136210;27;20043;-77
2021/07/05 11:30:34;;;;;;;0.88;0.80;;;;;;;19.98;82.83;98548.41;5136619;27;20081;-77
2021/07/05 11:33:04;;;;;;;2.28;0.88;;;;;;;20.04;85.57;98548.44;5136137;27;20051;-77
2021/07/05 11:35:40;;;;;;;2.50;0.85;;;;;;;20.08;80.35;98550.44;5136190;27;20055;-77
2021/07/05 11:38:27;;;;;;;1.70;0.80;;;;;;;20.24;81.54;98547.81;5136362;27;20084;-78
2021/07/05 11:40:58;;;;;;;2.20;0.88;;;;;;;20.14;82.86;98549.38;5136117;27;20044;-77
2021/07/05 11:43:48;;;;;;;1.17;0.80;;;;;;;20.02;84.15;98545.13;5135208;27;20048;-77
2021/07/05 11:46:51;;;;;;;0.90;0.88;;;;;;;20.02;82.74;98550.63;5136046;27;20047;-77
2021/07/05 11:49:26;;;;;;;1.17;0.90;;;;;;;20.07;80.19;98528.63;5132345;27;20047;-77